Time;durP1;ratioP1;P1;durP2;ratioP2;P2;SDS_P1;SDS_P2;PMS_P1;PMS_P2;Temp;Humidity;BMP_temperature;BMP_pressure;BME280_temperature;BME280_humidity;BME280_pressure;Samples;Min_cycle;Max_cycle;Signal;HPM_P1;HPM_P2
2021/07/01 00:01:57;;;;;;;16.50;12.13;;;15.40;92.80;;;;;;5094202;28;20113;-54
2021/07/01 00:04:26;;;;;;;16.52;11.80;;;15.40;92.90;;;;;;5094269;28;20602;-57
2021/07/01 00:06:53;;;;;;;12.48;11.18;;;15.40;93.00;;;;;;5094320;28;20024;-55
2021/07/01 00:09:23;;;;;;;16.23;11.07;;;15.40;93.20;;;;;;5094575;28;20024;-57
2021/07/01 00:11:52;;;;;;;13.73;10.55;;;15.40;92.80;;;;;;5094140;28;20102;-55
2021/07/01 00:14:21;;;;;;;12.27;10.88;;;15.40;92.90;;;;;;5093561;28;20032;-59
2021/07/01 00:16:50;;;;;;;12.68;10.45;;;15.40;92.80;;;;;;5112350;28;20025;-57
2021/07/01 00:19:18;;;;;;;12.25;10.93;;;15.50;92.80;;;;;;5114410;28;20121;-56
2021/07/01 00:21:45;;;;;;;14.63;11.95;;;15.50;92.70;;;;;;5114664;28;20023;-55
2021/07/01 00:24:13;;;;;;;15.32;11.88;;;15.40;92.70;;;;;;5114404;28;20028;-59
2021/07/01 00:26:41;;;;;;;12.20;10.57;;;15.40;92.70;;;;;;5114074;28;20126;-57
2021/07/01 00:29:09;;;;;;;16.50;12.40;;;15.50;92.80;;;;;;5114513;28;20415;-55
2021/07/01 00:31:36;;;;;;;12.15;10.85;;;15.50;92.80;;;;;;5113664;28;20023;-56
2021/07/01 00:34:04;;;;;;;15.90;10.85;;;15.50;92.70;;;;;;5112448;28;20031;-58
2021/07/01 00:36:35;;;;;;;12.23;9.90;;;15.50;92.70;;;;;;5114293;28;20040;-57
2021/07/01 00:39:04;;;;;;;12.20;10.52;;;15.60;92.70;;;;;;5113972;28;20057;-56
2021/07/01 00:41:32;;;;;;;14.13;11.52;;;15.60;92.70;;;;;;5114169;28;20044;-55
2021/07/01 00:44:02;;;;;;;13.75;11.30;;;15.60;92.60;;;;;;5113825;28;20519;-56
2021/07/01 00:46:31;;;;;;;14.85;11.75;;;15.60;92.70;;;;;;5113721;28;20039;-55
2021/07/01 00:48:58;;;;;;;14.77;13.07;;;15.60;92.60;;;;;;5114294;28;20012;-56
2021/07/01 00:51:26;;;;;;;17.30;12.70;;;15.60;92.70;;;;;;5113861;28;20099;-56
2021/07/01 00:53:53;;;;;;;14.40;12.63;;;15.60;92.70;;;;;;5113613;28;20039;-57
2021/07/01 00:56:25;;;;;;;14.80;12.20;;;15.60;92.60;;;;;;5113560;28;20038;-58
2021/07/01 00:58:54;;;;;;;14.57;12.73;;;15.60;92.70;;;;;;5113955;28;20045;-58
2021/07/01 01:01:23;;;;;;;14.43;12.52;;;15.70;92.70;;;;;;5113518;28;20049;-57
2021/07/01 01:03:51;;;;;;;17.40;12.13;;;15.70;92.70;;;;;;5113613;27;20106;-58
2021/07/01 01:06:18;;;;;;;13.57;11.02;;;15.70;92.60;;;;;;5113308;27;20106;-58
2021/07/01 01:08:46;;;;;;;14.35;11.32;;;15.70;92.60;;;;;;5113360;28;20102;-58
2021/07/01 01:11:13;;;;;;;17.40;12.23;;;15.70;92.50;;;;;;5113641;28;20482;-58
2021/07/01 01:13:43;;;;;;;16.20;12.25;;;15.70;92.60;;;;;;5113698;28;20482;-57
2021/07/01 01:16:11;;;;;;;17.15;13.13;;;15.70;92.60;;;;;;5111704;28;20501;-55
2021/07/01 01:18:39;;;;;;;19.08;13.63;;;15.80;92.60;;;;;;5113311;28;20034;-54
2021/07/01 01:21:12;;;;;;;17.27;13.40;;;15.80;92.50;;;;;;5113431;28;20543;-56
2021/07/01 01:23:39;;;;;;;14.85;11.82;;;15.80;92.50;;;;;;5113741;28;20019;-56
2021/07/01 01:26:06;;;;;;;14.48;12.85;;;15.80;92.50;;;;;;5113054;28;20182;-56
2021/07/01 01:28:35;;;;;;;16.20;12.93;;;15.80;92.50;;;;;;5113214;28;20101;-59
2021/07/01 01:31:04;;;;;;;16.15;12.43;;;15.90;92.50;;;;;;5113266;28;20470;-59
2021/07/01 01:33:31;;;;;;;16.33;12.98;;;15.80;92.40;;;;;;5112964;28;20403;-56
2021/07/01 01:35:59;;;;;;;13.77;12.00;;;15.90;92.40;;;;;;5112857;28;20020;-58
2021/07/01 01:38:27;;;;;;;14.68;12.32;;;15.90;92.30;;;;;;5112520;28;20031;-56
2021/07/01 01:40:54;;;;;;;14.85;12.25;;;15.90;92.40;;;;;;5112724;28;20131;-57
2021/07/01 01:43:22;;;;;;;21.23;12.32;;;15.90;92.30;;;;;;5113282;28;20026;-57
2021/07/01 01:45:51;;;;;;;16.05;13.00;;;15.90;92.40;;;;;;5113188;28;20026;-57
2021/07/01 01:48:18;;;;;;;14.50;12.13;;;15.90;92.30;;;;;;5112956;28;20099;-59
2021/07/01 01:50:46;;;;;;;19.45;14.50;;;16.00;92.40;;;;;;5112917;28;20024;-59
2021/07/01 01:53:13;;;;;;;20.08;13.60;;;16.00;92.40;;;;;;5113037;28;20016;-58
2021/07/01 01:55:41;;;;;;;23.48;16.85;;;16.00;92.60;;;;;;5113069;28;20053;-54
2021/07/01 01:58:09;;;;;;;22.58;13.55;;;16.10;92.60;;;;;;5113003;28;20015;-56
2021/07/01 02:00:38;;;;;;;14.57;12.63;;;16.10;92.50;;;;;;5113070;28;20144;-56
2021/07/01 02:03:05;;;;;;;21.15;14.35;;;16.10;92.30;;;;;;5113180;28;20339;-59
2021/07/01 02:05:33;;;;;;;21.42;15.65;;;16.20;92.50;;;;;;5112684;28;20034;-56
2021/07/01 02:08:00;;;;;;;15.10;11.80;;;16.30;92.70;;;;;;5112546;28;20023;-55
2021/07/01 02:10:33;;;;;;;22.45;16.52;;;16.40;92.40;;;;;;5112872;28;20386;-59
2021/07/01 02:13:00;;;;;;;16.50;13.57;;;16.60;92.70;;;;;;5113149;28;20016;-57
2021/07/01 02:15:27;;;;;;;16.70;12.25;;;16.90;92.40;;;;;;5112871;28;20024;-58
2021/07/01 02:17:56;;;;;;;25.73;17.65;;;17.20;92.20;;;;;;5112838;28;20081;-58
2021/07/01 02:20:27;;;;;;;33.53;16.75;;;17.50;91.90;;;;;;5091374;28;20040;-59
2021/07/01 02:22:55;;;;;;;13.38;11.35;;;17.80;91.30;;;;;;5091340;28;20457;-57
2021/07/01 02:25:22;;;;;;;22.70;14.77;;;18.10;89.90;;;;;;5090679;28;20107;-55
2021/07/01 02:27:50;;;;;;;15.05;11.18;;;18.50;89.70;;;;;;5092338;28;20048;-52
2021/07/01 02:30:19;;;;;;;25.77;14.55;;;18.90;86.90;;;;;;5091881;28;20031;-59
2021/07/01 02:32:46;;;;;;;16.27;12.45;;;19.20;85.90;;;;;;5092246;28;20209;-57
2021/07/01 02:35:14;;;;;;;12.57;10.18;;;19.60;83.90;;;;;;5092401;28;20494;-53
2021/07/01 02:37:43;;;;;;;14.50;11.70;;;19.70;80.30;;;;;;5092463;28;20035;-51
2021/07/01 02:40:14;;;;;;;11.75;10.55;;;19.60;79.90;;;;;;5091634;28;20064;-56
2021/07/01 02:42:43;;;;;;;12.53;11.23;;;19.50;80.40;;;;;;5092235;28;20028;-53
2021/07/01 02:45:12;;;;;;;21.27;13.75;;;19.40;81.20;;;;;;5092220;28;20077;-56
2021/07/01 02:47:40;;;;;;;14.00;10.75;;;19.40;81.60;;;;;;5092179;28;20459;-59
2021/07/01 02:50:09;;;;;;;21.80;12.25;;;19.30;81.30;;;;;;5091556;28;20086;-55
2021/07/01 02:52:38;;;;;;;14.60;11.60;;;19.30;82.50;;;;;;5092163;28;20020;-61
2021/07/01 02:55:06;;;;;;;16.27;10.55;;;19.30;82.20;;;;;;5095429;28;20467;-58
2021/07/01 02:57:34;;;;;;;24.33;13.43;;;19.30;82.60;;;;;;5095837;28;20067;-58
2021/07/01 03:00:02;;;;;;;18.48;13.35;;;19.40;83.30;;;;;;5095407;28;20036;-57
2021/07/01 03:02:30;;;;;;;26.35;12.85;;;19.60;83.20;;;;;;5095843;28;20024;-57
2021/07/01 03:04:57;;;;;;;13.55;11.10;;;19.70;82.20;;;;;;5095825;28;20359;-58
2021/07/01 03:07:24;;;;;;;17.13;11.65;;;19.80;80.70;;;;;;5095699;28;20443;-58
2021/07/01 03:09:52;;;;;;;16.63;11.05;;;20.00;80.30;;;;;;5095935;28;20028;-58
2021/07/01 03:12:19;;;;;;;19.23;12.80;;;19.90;79.70;;;;;;5095259;28;20087;-55
2021/07/01 03:14:46;;;;;;;15.98;11.65;;;19.90;79.80;;;;;;5095850;28;20028;-57
2021/07/01 03:17:14;;;;;;;12.27;9.65;;;19.90;80.50;;;;;;5095595;28;20023;-52
2021/07/01 03:19:41;;;;;;;13.35;10.57;;;20.00;79.90;;;;;;5093841;28;20475;-58
2021/07/01 03:22:09;;;;;;;13.90;11.10;;;20.00;79.90;;;;;;5085294;28;20827;-58
2021/07/01 03:24:36;;;;;;;13.65;10.48;;;19.90;79.60;;;;;;5090818;28;20474;-61
2021/07/01 03:27:04;;;;;;;12.52;10.63;;;19.80;79.10;;;;;;5091855;28;20121;-47
2021/07/01 03:29:32;;;;;;;14.60;10.93;;;19.70;79.60;;;;;;5090503;28;20103;-54
2021/07/01 03:32:00;;;;;;;10.18;9.00;;;19.50;80.60;;;;;;5092131;28;20046;-62
2021/07/01 03:34:27;;;;;;;13.60;10.70;;;19.30;81.80;;;;;;5089030;28;20020;-53
2021/07/01 03:36:54;;;;;;;11.73;9.75;;;19.30;82.50;;;;;;5091400;28;20356;-51
2021/07/01 03:39:22;;;;;;;12.27;10.10;;;19.20;82.50;;;;;;5090866;28;20058;-52
2021/07/01 03:41:49;;;;;;;15.35;11.18;;;19.20;84.30;;;;;;5091262;28;20036;-58
2021/07/01 03:44:17;;;;;;;16.63;11.23;;;19.30;83.20;;;;;;5091808;28;20024;-52
2021/07/01 03:46:45;;;;;;;11.55;9.90;;;19.40;83.40;;;;;;5090543;28;20028;-55
2021/07/01 03:49:12;;;;;;;12.15;9.88;;;19.30;82.60;;;;;;5089652;28;20020;-47
2021/07/01 03:51:40;;;;;;;14.82;10.27;;;19.30;82.70;;;;;;5090526;28;20077;-50
2021/07/01 03:54:08;;;;;;;12.63;9.07;;;19.20;82.70;;;;;;5090838;28;20382;-54
2021/07/01 03:56:41;;;;;;;12.65;9.70;;;19.10;82.90;;;;;;5091437;28;20024;-51
2021/07/01 03:59:15;;;;;;;14.63;10.80;;;19.00;83.50;;;;;;5087575;28;20127;-55
2021/07/01 04:01:43;;;;;;;10.88;9.15;;;18.90;83.70;;;;;;5091019;28;20043;-54
2021/07/01 04:04:11;;;;;;;15.25;9.55;;;18.80;84.20;;;;;;5091534;28;20024;-53
2021/07/01 04:06:38;;;;;;;12.43;9.23;;;18.80;84.50;;;;;;5090739;28;20028;-52
2021/07/01 04:09:07;;;;;;;12.27;9.65;;;18.70;84.70;;;;;;5088031;28;20103;-52
2021/07/01 04:11:35;;;;;;;12.07;9.25;;;18.60;85.10;;;;;;5092223;28;20017;-56
2021/07/01 04:14:03;;;;;;;13.05;9.90;;;18.60;85.40;;;;;;5089931;28;20023;-54
2021/07/01 04:16:33;;;;;;;16.00;11.13;;;18.50;85.70;;;;;;5088505;28;20055;-53
2021/07/01 04:19:00;;;;;;;19.15;10.60;;;18.50;85.90;;;;;;5084983;28;20028;-55
2021/07/01 04:21:28;;;;;;;24.00;10.90;;;18.40;86.30;;;;;;5088091;28;20068;-54
2021/07/01 04:23:58;;;;;;;13.13;10.30;;;18.40;86.50;;;;;;5089421;28;20066;-51
2021/07/01 04:26:26;;;;;;;12.55;9.68;;;18.30;86.70;;;;;;5086018;28;20478;-54
2021/07/01 04:28:54;;;;;;;15.30;10.43;;;18.30;87.20;;;;;;5087647;28;20055;-56
2021/07/01 04:31:22;;;;;;;16.02;12.15;;;18.20;87.20;;;;;;5087313;28;20074;-52
2021/07/01 04:33:50;;;;;;;14.30;10.63;;;18.20;87.80;;;;;;5087175;28;20032;-51
2021/07/01 04:36:17;;;;;;;13.82;10.05;;;18.20;87.70;;;;;;5089356;28;20035;-54
2021/07/01 04:38:45;;;;;;;14.07;9.70;;;18.10;87.90;;;;;;5082927;28;20020;-55
2021/07/01 04:41:14;;;;;;;14.98;9.85;;;18.00;88.30;;;;;;5087411;28;20036;-53
2021/07/01 04:43:41;;;;;;;10.88;9.02;;;17.90;88.60;;;;;;5087524;28;20448;-55
2021/07/01 04:46:09;;;;;;;18.08;10.88;;;17.90;88.70;;;;;;5088133;28;20077;-52
2021/07/01 04:48:36;;;;;;;11.43;8.90;;;17.90;89.10;;;;;;5087097;28;20489;-54
2021/07/01 04:51:03;;;;;;;10.00;8.57;;;17.80;89.20;;;;;;5088108;28;20347;-51
2021/07/01 04:53:31;;;;;;;10.02;9.02;;;17.80;89.00;;;;;;5087371;28;20020;-55
2021/07/01 04:55:58;;;;;;;12.45;8.07;;;17.80;89.20;;;;;;5088360;28;20032;-53
2021/07/01 04:58:26;;;;;;;9.50;8.38;;;17.80;89.20;;;;;;5083545;28;20036;-57
2021/07/01 05:00:53;;;;;;;11.40;7.65;;;17.80;89.30;;;;;;5087602;28;20119;-51
2021/07/01 05:03:21;;;;;;;12.07;8.77;;;17.80;89.20;;;;;;5090740;28;20073;-53
2021/07/01 05:05:48;;;;;;;10.15;7.88;;;17.70;89.40;;;;;;5088648;28;20050;-57
2021/07/01 05:08:16;;;;;;;9.10;8.10;;;17.70;89.40;;;;;;5084251;28;20036;-57
2021/07/01 05:10:44;;;;;;;9.65;8.25;;;17.70;89.60;;;;;;5089174;28;20040;-52
2021/07/01 05:13:11;;;;;;;11.35;7.55;;;17.70;89.70;;;;;;5086632;28;20019;-53
2021/07/01 05:15:39;;;;;;;10.48;7.20;;;17.70;89.80;;;;;;5090027;28;20020;-55
2021/07/01 05:18:06;;;;;;;12.23;7.45;;;17.70;89.80;;;;;;5084276;28;20096;-54
2021/07/01 05:20:33;;;;;;;10.38;7.45;;;17.70;89.60;;;;;;5089476;28;20077;-55
2021/07/01 05:23:01;;;;;;;9.88;7.93;;;17.70;89.50;;;;;;5087057;28;20119;-58
2021/07/01 05:25:28;;;;;;;12.55;6.50;;;17.70;89.80;;;;;;5089382;28;20462;-56
2021/07/01 05:27:55;;;;;;;9.27;7.28;;;17.60;89.70;;;;;;5082961;28;21367;-56
2021/07/01 05:30:23;;;;;;;10.82;8.13;;;17.60;90.00;;;;;;5086289;28;20035;-57
2021/07/01 05:32:51;;;;;;;8.88;6.80;;;17.60;90.10;;;;;;5089353;28;20391;-57
2021/07/01 05:35:18;;;;;;;8.73;6.32;;;17.60;90.00;;;;;;5086893;28;20544;-59
2021/07/01 05:37:45;;;;;;;10.15;6.80;;;17.60;90.10;;;;;;5082635;28;20173;-57
2021/07/01 05:40:15;;;;;;;11.50;7.03;;;17.60;90.10;;;;;;5089230;28;20095;-54
2021/07/01 05:42:43;;;;;;;9.43;6.68;;;17.60;90.20;;;;;;5088450;28;20173;-56
2021/07/01 05:45:10;;;;;;;7.90;6.55;;;17.60;90.20;;;;;;5086682;28;20424;-57
2021/07/01 05:47:39;;;;;;;10.82;7.07;;;17.50;90.30;;;;;;5085445;28;20032;-57
2021/07/01 05:50:08;;;;;;;9.93;6.93;;;17.60;90.40;;;;;;5086687;28;20034;-51
2021/07/01 05:52:36;;;;;;;11.57;6.72;;;17.50;90.30;;;;;;5087697;28;21369;-51
2021/07/01 05:55:07;;;;;;;10.52;7.57;;;17.50;90.30;;;;;;5086269;28;20070;-57
2021/07/01 05:57:34;;;;;;;9.57;6.75;;;17.50;90.40;;;;;;5084692;28;20036;-56
2021/07/01 06:00:04;;;;;;;10.38;6.95;;;17.50;90.40;;;;;;5083971;28;20485;-55
2021/07/01 06:02:31;;;;;;;7.78;5.97;;;17.50;90.50;;;;;;5086510;28;20491;-56
2021/07/01 06:04:58;;;;;;;7.65;6.80;;;17.40;90.50;;;;;;5088346;28;20379;-51
2021/07/01 06:07:26;;;;;;;8.98;6.57;;;17.40;90.70;;;;;;5086361;28;20066;-53
2021/07/01 06:09:56;;;;;;;9.05;5.82;;;17.40;91.00;;;;;;5085386;28;20107;-56
2021/07/01 06:12:24;;;;;;;9.48;6.60;;;17.40;90.70;;;;;;5088226;28;20363;-55
2021/07/01 06:14:59;;;;;;;8.93;6.88;;;17.40;90.70;;;;;;5085505;28;20463;-53
2021/07/01 06:17:33;;;;;;;9.20;6.00;;;17.40;90.80;;;;;;5087107;28;20046;-52
2021/07/01 06:20:06;;;;;;;9.13;6.10;;;17.40;90.90;;;;;;5085211;28;20048;-54
2021/07/01 06:22:34;;;;;;;9.50;6.57;;;17.40;90.80;;;;;;5088088;28;20085;-53
2021/07/01 06:25:02;;;;;;;10.75;6.45;;;17.30;90.80;;;;;;5088211;28;20035;-56
2021/07/01 06:27:34;;;;;;;11.15;5.97;;;17.30;90.80;;;;;;5085435;28;20052;-51
2021/07/01 06:30:23;;;;;;;6.95;5.95;;;17.30;91.00;;;;;;5088937;28;20087;-54
2021/07/01 06:32:52;;;;;;;9.63;5.82;;;17.30;91.00;;;;;;5091495;28;20101;-52
2021/07/01 06:35:25;;;;;;;8.80;5.80;;;17.30;91.10;;;;;;5089510;28;20058;-53
2021/07/01 06:37:59;;;;;;;7.68;6.28;;;17.30;91.10;;;;;;5088720;28;20482;-56
2021/07/01 06:40:32;;;;;;;8.77;6.53;;;17.30;91.10;;;;;;5091289;28;20056;-54
2021/07/01 06:43:00;;;;;;;9.88;5.88;;;17.40;91.20;;;;;;5090028;28;20028;-53
2021/07/01 06:45:28;;;;;;;7.30;5.30;;;17.30;91.10;;;;;;5089661;28;20076;-51
2021/07/01 06:47:57;;;;;;;9.90;6.22;;;17.30;91.20;;;;;;5086597;28;20020;-55
2021/07/01 06:50:30;;;;;;;8.75;5.38;;;17.30;91.20;;;;;;5088042;28;20047;-53
2021/07/01 06:52:58;;;;;;;8.25;5.35;;;17.30;91.20;;;;;;5091832;28;20043;-54
2021/07/01 06:55:27;;;;;;;6.40;5.43;;;17.30;91.20;;;;;;5091321;28;20034;-56
2021/07/01 06:57:55;;;;;;;8.18;5.10;;;17.30;91.30;;;;;;5086498;28;20032;-54
2021/07/01 07:00:23;;;;;;;8.43;5.75;;;17.30;91.30;;;;;;5089790;28;20142;-56
2021/07/01 07:02:53;;;;;;;6.65;5.25;;;17.30;91.30;;;;;;5089615;28;20036;-58
2021/07/01 07:05:21;;;;;;;6.35;5.00;;;17.30;91.30;;;;;;5090761;28;20373;-57
2021/07/01 07:07:50;;;;;;;6.55;5.03;;;17.30;91.30;;;;;;5084834;28;21182;-59
2021/07/01 07:10:23;;;;;;;6.93;4.95;;;17.30;91.30;;;;;;5087376;28;20479;-57
2021/07/01 07:12:54;;;;;;;8.00;5.35;;;17.30;91.30;;;;;;5090236;28;20059;-57
2021/07/01 07:15:28;;;;;;;7.85;4.85;;;17.20;91.40;;;;;;5089177;28;20046;-56
2021/07/01 07:18:05;;;;;;;9.93;5.68;;;17.20;91.30;;;;;;5086352;28;20032;-55
2021/07/01 07:20:37;;;;;;;7.65;5.50;;;17.30;91.40;;;;;;5088992;28;20043;-54
2021/07/01 07:23:07;;;;;;;7.63;5.45;;;17.20;91.40;;;;;;5092615;28;20012;-57
2021/07/01 07:25:42;;;;;;;8.27;5.72;;;17.20;91.40;;;;;;5090512;28;20483;-55
2021/07/01 07:28:11;;;;;;;6.35;4.30;;;17.20;91.40;;;;;;5084211;28;20059;-55
2021/07/01 07:30:40;;;;;;;6.57;4.80;;;17.20;91.40;;;;;;5094476;28;20035;-58
2021/07/01 07:33:10;;;;;;;7.28;4.50;;;17.20;91.40;;;;;;5074935;28;20039;-57
2021/07/01 07:35:37;;;;;;;5.00;4.32;;;17.10;91.40;;;;;;5075986;28;20028;-58
2021/07/01 07:38:07;;;;;;;5.13;4.45;;;17.10;91.50;;;;;;5071831;28;20078;-54
2021/07/01 07:40:37;;;;;;;9.93;4.90;;;17.10;91.50;;;;;;5082397;28;20073;-53
2021/07/01 07:43:06;;;;;;;12.27;4.43;;;17.10;91.60;;;;;;5091512;28;20309;-56
2021/07/01 07:45:33;;;;;;;7.25;4.70;;;17.10;91.60;;;;;;5074780;28;20027;-56
2021/07/01 07:48:01;;;;;;;7.03;5.30;;;17.10;91.70;;;;;;5086268;28;20021;-57
2021/07/01 07:50:28;;;;;;;7.50;4.22;;;17.00;91.70;;;;;;5074577;28;20494;-57
2021/07/01 07:52:58;;;;;;;9.57;4.95;;;17.00;91.70;;;;;;5082528;28;20024;-58
2021/07/01 07:55:30;;;;;;;7.60;4.78;;;17.00;91.70;;;;;;5093220;28;20543;-52
2021/07/01 07:58:00;;;;;;;6.35;4.57;;;17.00;91.80;;;;;;5080782;28;20357;-54
2021/07/01 08:00:29;;;;;;;6.97;4.63;;;17.00;91.80;;;;;;5083347;28;20055;-58
2021/07/01 08:03:02;;;;;;;6.53;4.57;;;17.00;91.80;;;;;;5090686;28;20047;-53
2021/07/01 08:05:33;;;;;;;;;;;17.00;91.90;;;;;;5092685;28;20455;-52
2021/07/01 08:08:02;;;;;;;5.90;4.30;;;16.90;91.90;;;;;;5082772;28;20357;-56
2021/07/01 08:10:32;;;;;;;8.85;4.70;;;16.90;91.90;;;;;;5091228;28;20077;-57
2021/07/01 08:13:05;;;;;;;8.88;4.60;;;16.90;92.00;;;;;;5090954;28;20116;-53
2021/07/01 08:15:40;;;;;;;7.32;4.05;;;16.90;92.10;;;;;;5082879;28;20029;-57
2021/07/01 08:18:09;;;;;;;7.93;4.25;;;16.90;92.10;;;;;;5083587;28;20028;-54
2021/07/01 08:20:36;;;;;;;7.70;4.57;;;16.90;92.10;;;;;;5077816;28;20051;-57
2021/07/01 08:23:04;;;;;;;9.10;4.63;;;16.90;92.20;;;;;;5092802;28;20024;-56
2021/07/01 08:25:32;;;;;;;7.43;4.63;;;16.90;92.20;;;;;;5087829;28;20040;-57
2021/07/01 08:28:00;;;;;;;6.47;4.20;;;16.90;92.20;;;;;;5086999;28;20041;-58
2021/07/01 08:30:27;;;;;;;5.40;3.78;;;16.90;92.30;;;;;;5093233;28;20028;-54
2021/07/01 08:32:59;;;;;;;8.98;4.88;;;16.80;92.20;;;;;;5081187;28;20020;-58
2021/07/01 08:35:28;;;;;;;8.02;4.50;;;16.80;92.30;;;;;;5092114;28;20024;-56
2021/07/01 08:38:05;;;;;;;6.32;4.10;;;16.80;92.20;;;;;;5094248;28;20028;-58
2021/07/01 08:40:38;;;;;;;5.35;4.00;;;16.80;92.20;;;;;;5086825;28;20165;-58
2021/07/01 08:43:08;;;;;;;8.82;4.72;;;16.80;92.30;;;;;;5087215;28;20035;-58
2021/07/01 08:45:57;;;;;;;9.73;4.38;;;16.80;92.30;;;;;;5093393;28;20028;-57
2021/07/01 08:48:26;;;;;;;6.53;4.28;;;16.80;92.40;;;;;;5082023;28;20040;-58
2021/07/01 08:50:56;;;;;;;8.93;4.47;;;16.80;92.40;;;;;;5089649;28;20196;-57
2021/07/01 08:53:29;;;;;;;5.53;3.95;;;16.80;92.30;;;;;;5080854;28;20024;-56
2021/07/01 08:56:00;;;;;;;7.47;4.30;;;16.80;92.30;;;;;;5083628;28;20440;-60
2021/07/01 08:58:32;;;;;;;8.35;5.13;;;16.70;92.30;;;;;;5092497;28;20506;-57
2021/07/01 09:01:03;;;;;;;11.80;6.60;;;16.70;92.40;;;;;;5092757;28;20028;-54
2021/07/01 09:03:33;;;;;;;14.35;9.13;;;16.70;92.40;;;;;;5092141;28;20021;-56
2021/07/01 09:06:07;;;;;;;23.40;12.40;;;16.70;92.40;;;;;;5093761;28;20069;-58
2021/07/01 09:08:43;;;;;;;32.20;16.40;;;16.70;92.40;;;;;;5082763;28;20028;-58
2021/07/01 09:11:16;;;;;;;82.22;38.10;;;16.80;92.90;;;;;;5091088;28;20032;-53
2021/07/01 09:13:49;;;;;;;102.10;48.10;;;16.80;92.70;;;;;;5092036;28;20031;-47
2021/07/01 09:16:18;;;;;;;94.80;47.70;;;16.80;92.70;;;;;;5088423;28;20110;-48
2021/07/01 09:18:46;;;;;;;90.65;44.58;;;16.90;92.60;;;;;;5088775;28;20078;-55
2021/07/01 09:21:15;;;;;;;90.10;45.75;;;16.90;92.70;;;;;;5089109;28;20036;-53
2021/07/01 09:23:47;;;;;;;96.82;46.35;;;16.90;92.60;;;;;;5090261;28;20016;-51
2021/07/01 09:26:25;;;;;;;98.15;51.95;;;16.90;92.60;;;;;;5088378;28;20068;-49
2021/07/01 09:28:54;;;;;;;97.78;50.42;;;16.90;92.50;;;;;;5090080;28;20323;-50
2021/07/01 09:31:24;;;;;;;95.90;50.50;;;16.90;92.40;;;;;;5090327;28;20112;-55
2021/07/01 09:33:53;;;;;;;98.75;52.22;;;16.90;92.40;;;;;;5090546;28;20022;-50
2021/07/01 09:36:25;;;;;;;109.25;50.75;;;16.90;92.40;;;;;;5086529;28;20070;-48
2021/07/01 09:38:54;;;;;;;107.25;51.55;;;17.00;92.70;;;;;;5090528;28;20570;-52
2021/07/01 09:41:23;;;;;;;99.68;51.45;;;17.00;92.40;;;;;;5089835;28;20510;-54
2021/07/01 09:43:51;;;;;;;95.63;50.20;;;17.00;92.40;;;;;;5089464;28;20050;-52
2021/07/01 09:46:23;;;;;;;102.05;51.65;;;17.00;92.40;;;;;;5085717;28;20401;-59
2021/07/01 09:48:54;;;;;;;94.93;49.33;;;17.00;92.40;;;;;;5087782;28;20131;-57
2021/07/01 09:51:22;;;;;;;89.05;48.42;;;16.90;92.40;;;;;;5088469;28;20386;-51
2021/07/01 09:53:54;;;;;;;102.43;51.33;;;16.90;92.40;;;;;;5090024;28;20027;-51
2021/07/01 09:56:36;;;;;;;;;;;16.90;92.50;;;;;;5085635;28;20390;-50
2021/07/01 09:59:11;;;;;;;92.47;48.80;;;16.90;92.70;;;;;;5089157;28;19920;-50
2021/07/01 10:01:38;;;;;;;96.57;50.78;;;16.90;92.70;;;;;;5089914;28;20036;-54
2021/07/01 10:04:10;;;;;;;96.57;50.47;;;16.90;92.70;;;;;;5089354;28;20620;-58
2021/07/01 10:06:38;;;;;;;103.53;51.22;;;16.90;93.10;;;;;;5086436;28;20509;-59
2021/07/01 10:09:07;;;;;;;103.68;53.13;;;16.90;92.70;;;;;;5090029;28;20437;-55
2021/07/01 10:11:43;;;;;;;96.03;50.00;;;16.90;92.70;;;;;;5089725;28;20024;-51
2021/07/01 10:14:15;;;;;;;107.28;54.25;;;16.90;92.70;;;;;;5087851;28;20466;-54
2021/07/01 10:16:43;;;;;;;100.35;52.70;;;16.90;92.70;;;;;;5085974;28;20063;-52
2021/07/01 10:19:17;;;;;;;114.78;53.50;;;16.90;92.70;;;;;;5087965;28;20032;-59
2021/07/01 10:21:45;;;;;;;93.15;51.05;;;16.90;93.00;;;;;;5086048;28;20064;-57
2021/07/01 10:24:19;;;;;;;96.65;51.15;;;16.90;92.70;;;;;;5089838;28;20502;-56
2021/07/01 10:26:51;;;;;;;97.68;51.50;;;16.90;92.80;;;;;;5084339;28;20385;-51
2021/07/01 10:29:19;;;;;;;93.18;51.08;;;17.00;92.70;;;;;;5086496;28;20024;-54
2021/07/01 10:32:06;;;;;;;95.55;51.50;;;16.90;92.70;;;;;;5085923;28;20115;-52
2021/07/01 10:34:48;;;;;;;101.65;51.45;;;16.90;92.70;;;;;;5089456;28;20039;-49
2021/07/01 10:37:20;;;;;;;91.40;50.20;;;16.90;92.70;;;;;;5085957;28;20043;-54
2021/07/01 10:39:48;;;;;;;97.28;49.80;;;16.90;92.60;;;;;;5088797;28;20490;-54
2021/07/01 10:42:18;;;;;;;90.15;50.25;;;16.90;92.70;;;;;;5088995;28;20589;-60
2021/07/01 10:44:46;;;;;;;94.28;50.70;;;16.90;92.70;;;;;;5089643;28;20463;-63
2021/07/01 10:47:43;;;;;;;93.28;50.40;;;17.00;92.70;;;;;;5085479;28;20031;-61
2021/07/01 10:50:20;;;;;;;95.82;50.15;;;16.90;92.70;;;;;;5075356;28;20036;-53
2021/07/01 10:52:48;;;;;;;91.85;48.75;;;17.00;92.70;;;;;;5088676;28;20829;-52
2021/07/01 10:55:16;;;;;;;90.45;49.03;;;16.90;92.80;;;;;;5087145;28;20176;-49
2021/07/01 10:57:57;;;;;;;90.38;47.70;;;16.90;92.70;;;;;;5086351;28;20107;-53
2021/07/01 11:00:45;;;;;;;89.40;48.80;;;16.90;92.70;;;;;;5086770;28;20415;-49
2021/07/01 11:03:21;;;;;;;90.40;49.00;;;16.90;92.70;;;;;;5088903;28;20024;-55
2021/07/01 11:05:49;;;;;;;92.55;51.08;;;16.90;92.80;;;;;;5088584;28;20024;-49
2021/07/01 11:08:32;;;;;;;78.65;46.17;;;16.90;92.70;;;;;;5086237;28;20062;-52
2021/07/01 11:11:03;;;;;;;84.53;48.72;;;16.90;92.70;;;;;;5087343;28;20028;-52
2021/07/01 11:13:31;;;;;;;88.45;47.50;;;16.90;92.70;;;;;;5089333;28;20599;-54
2021/07/01 11:16:08;;;;;;;84.32;48.45;;;16.80;92.70;;;;;;5092371;28;20028;-48
2021/07/01 11:18:40;;;;;;;87.82;49.42;;;16.80;92.80;;;;;;5092208;28;20028;-53
2021/07/01 11:21:11;;;;;;;;;;;16.80;92.80;;;;;;5093656;28;20040;-60
2021/07/01 11:23:40;;;;;;;83.40;45.55;;;16.80;92.80;;;;;;5092740;28;19911;-51
2021/07/01 11:26:25;;;;;;;87.78;48.83;;;16.80;92.80;;;;;;5090877;28;20051;-54
2021/07/01 11:28:53;;;;;;;80.30;46.15;;;16.80;92.80;;;;;;5092489;28;20032;-55
2021/07/01 11:31:32;;;;;;;83.78;47.70;;;16.70;92.80;;;;;;5092435;28;20020;-53
2021/07/01 11:34:02;;;;;;;81.60;46.95;;;16.80;92.80;;;;;;5090743;28;20048;-56
2021/07/01 11:36:30;;;;;;;79.60;45.83;;;16.70;92.80;;;;;;5088645;28;20028;-53
2021/07/01 11:39:07;;;;;;;76.97;44.97;;;16.70;92.80;;;;;;5090196;28;20032;-51
2021/07/01 11:41:35;;;;;;;78.35;46.75;;;16.70;92.80;;;;;;5091055;28;20043;-55
2021/07/01 11:44:04;;;;;;;77.07;43.40;;;16.70;92.80;;;;;;5091923;28;20016;-58
2021/07/01 11:46:33;;;;;;;75.20;43.70;;;16.70;92.80;;;;;;5089165;28;20035;-52
2021/07/01 11:49:05;;;;;;;77.50;43.45;;;16.70;92.80;;;;;;5089041;28;20394;-56
2021/07/01 11:51:33;;;;;;;71.53;44.50;;;16.70;92.80;;;;;;5089097;28;20030;-53
2021/07/01 11:54:01;;;;;;;73.40;45.03;;;16.70;92.80;;;;;;5090579;28;20036;-53
2021/07/01 11:56:29;;;;;;;64.40;41.22;;;16.60;92.80;;;;;;5088775;28;20024;-50
2021/07/01 11:58:57;;;;;;;78.22;44.28;;;16.70;92.80;;;;;;5092184;28;20081;-49
2021/07/01 12:01:26;;;;;;;71.40;43.88;;;16.70;92.80;;;;;;5091552;28;20036;-50
2021/07/01 12:03:54;;;;;;;73.43;43.58;;;16.60;92.80;;;;;;5092906;28;20502;-50
2021/07/01 12:06:53;;;;;;;70.50;43.20;;;16.60;92.80;;;;;;5088757;28;20039;-52
2021/07/01 12:09:21;;;;;;;75.75;43.67;;;16.60;92.80;;;;;;5089758;28;20098;-48
2021/07/01 12:12:03;;;;;;;77.97;42.97;;;16.60;92.90;;;;;;5092081;28;20035;-49
2021/07/01 12:14:44;;;;;;;69.35;42.45;;;16.60;92.90;;;;;;5092298;28;20028;-51
2021/07/01 12:17:12;;;;;;;70.80;43.17;;;16.60;92.90;;;;;;5087518;28;20164;-51
2021/07/01 12:19:48;;;;;;;69.13;41.28;;;16.60;92.90;;;;;;5091211;28;20027;-52
2021/07/01 12:22:48;;;;;;;67.75;41.65;;;16.50;92.80;;;;;;5091281;28;20040;-55
2021/07/01 12:25:21;;;;;;;66.20;40.05;;;16.50;92.80;;;;;;5090978;28;20027;-47
2021/07/01 12:28:07;;;;;;;61.03;37.90;;;16.60;92.80;;;;;;5087446;28;20052;-51
2021/07/01 12:31:04;;;;;;;63.25;39.15;;;16.60;92.80;;;;;;5091823;28;20086;-50
2021/07/01 12:33:32;;;;;;;62.50;38.72;;;16.50;92.70;;;;;;5089905;28;20020;-52
2021/07/01 12:36:10;;;;;;;62.78;38.38;;;16.50;92.70;;;;;;5090748;28;20024;-53
2021/07/01 12:38:39;;;;;;;59.65;36.85;;;16.50;92.80;;;;;;5089108;28;20111;-52
2021/07/01 12:41:11;;;;;;;61.80;37.42;;;16.50;92.80;;;;;;5090489;28;20036;-56
2021/07/01 12:43:51;;;;;;;58.88;37.00;;;16.50;92.70;;;;;;5091373;28;20115;-49
2021/07/01 12:46:42;;;;;;;61.10;37.03;;;16.50;92.80;;;;;;5088691;28;20039;-49
2021/07/01 12:49:22;;;;;;;60.65;35.38;;;16.50;92.80;;;;;;5090056;28;20051;-47